createdAt,value
2018-06-08T00:02:11.406Z,2.30
2018-06-08T00:04:39.613Z,1.70
2018-06-08T00:07:07.847Z,2.90
2018-06-08T00:09:36.053Z,3.23
2018-06-08T00:12:04.270Z,1.87
2018-06-08T00:14:32.717Z,3.03
2018-06-08T00:17:00.962Z,2.20
2018-06-08T00:19:29.224Z,3.93
2018-06-08T00:21:57.496Z,2.90
2018-06-08T00:24:25.713Z,2.13
2018-06-08T00:26:53.962Z,2.80
2018-06-08T00:29:22.182Z,2.13
2018-06-08T00:31:50.427Z,2.53
2018-06-08T00:34:18.631Z,1.63
2018-06-08T00:36:46.881Z,3.57
2018-06-08T00:39:15.110Z,0.97
2018-06-08T00:41:43.326Z,2.07
2018-06-08T00:44:11.518Z,0.90
2018-06-08T00:46:39.745Z,1.27
2018-06-08T00:49:07.950Z,2.83
2018-06-08T00:51:36.197Z,2.30
2018-06-08T00:54:04.422Z,2.00
2018-06-08T00:56:43.883Z,2.00
2018-06-08T00:59:12.104Z,2.00
2018-06-08T01:01:40.363Z,1.70
2018-06-08T01:04:08.594Z,4.00
2018-06-08T01:06:36.830Z,3.50
2018-06-08T01:09:07.989Z,1.23
2018-06-08T01:11:36.282Z,1.90
2018-06-08T01:14:04.538Z,1.67
2018-06-08T01:16:32.779Z,1.70
2018-06-08T01:19:01.294Z,2.90
2018-06-08T01:21:29.498Z,3.60
2018-06-08T01:23:57.729Z,1.83
2018-06-08T01:26:25.943Z,3.27
2018-06-08T01:28:54.166Z,1.73
2018-06-08T01:31:22.392Z,0.60
2018-06-08T01:33:50.631Z,1.80
2018-06-08T01:36:18.854Z,2.20
2018-06-08T01:38:47.079Z,1.07
2018-06-08T01:41:15.507Z,1.27
2018-06-08T01:43:43.734Z,3.70
2018-06-08T01:46:11.945Z,2.53
2018-06-08T01:48:40.162Z,2.07
2018-06-08T01:51:08.406Z,1.00
2018-06-08T01:53:36.630Z,2.77
2018-06-08T01:56:04.884Z,6.10
2018-06-08T01:58:33.137Z,1.83
2018-06-08T02:01:01.439Z,2.17
2018-06-08T02:03:29.683Z,1.70
2018-06-08T02:05:57.986Z,1.10
2018-06-08T02:08:26.219Z,2.83
2018-06-08T02:10:54.442Z,1.17
2018-06-08T02:13:22.713Z,5.23
2018-06-08T02:15:50.944Z,4.07
2018-06-08T02:18:19.198Z,2.10
2018-06-08T02:20:47.443Z,3.50
2018-06-08T02:23:15.658Z,3.13
2018-06-08T02:25:44.141Z,3.10
2018-06-08T02:28:12.440Z,1.33
2018-06-08T02:30:40.679Z,3.73
2018-06-08T02:33:08.918Z,3.50
2018-06-08T02:35:37.164Z,3.23
2018-06-08T02:38:05.497Z,4.60
2018-06-08T02:40:33.726Z,0.77
2018-06-08T02:43:01.677Z,2.73
2018-06-08T02:45:29.895Z,2.07
2018-06-08T02:47:58.370Z,2.57
2018-06-08T02:50:26.674Z,3.53
2018-06-08T02:52:54.948Z,1.60
2018-06-08T02:55:23.225Z,5.43
2018-06-08T02:57:51.477Z,2.10
2018-06-08T03:00:19.438Z,1.20
2018-06-08T03:02:47.682Z,3.43
2018-06-08T03:05:15.948Z,1.43
2018-06-08T03:07:44.156Z,4.20
2018-06-08T03:10:12.506Z,3.80
2018-06-08T03:12:40.728Z,2.23
2018-06-08T03:15:08.975Z,4.50
2018-06-08T03:17:37.174Z,2.20
2018-06-08T03:20:05.446Z,3.10
2018-06-08T03:22:33.663Z,5.87
2018-06-08T03:25:01.890Z,5.03
2018-06-08T03:27:30.101Z,1.00
2018-06-08T03:29:58.329Z,7.00
2018-06-08T03:32:26.680Z,5.10
2018-06-08T03:34:54.904Z,3.27
2018-06-08T03:37:23.158Z,3.70
2018-06-08T03:39:51.403Z,2.23
2018-06-08T03:42:19.622Z,5.17
2018-06-08T03:44:47.799Z,2.23
2018-06-08T03:47:16.010Z,3.00
2018-06-08T03:49:44.237Z,1.93
2018-06-08T03:52:12.466Z,4.43
2018-06-08T03:54:40.859Z,3.43
2018-06-08T03:57:09.097Z,1.53
2018-06-08T03:59:37.293Z,3.37
2018-06-08T04:02:05.493Z,2.53
2018-06-08T04:04:33.718Z,6.37
2018-06-08T04:07:01.934Z,6.27
2018-06-08T04:09:30.166Z,2.00
2018-06-08T04:11:58.365Z,3.80
2018-06-08T04:14:26.584Z,3.40
2018-06-08T04:16:55.027Z,2.67
2018-06-08T04:19:23.230Z,4.57
2018-06-08T04:21:51.461Z,4.07
2018-06-08T04:24:19.666Z,3.87
2018-06-08T04:26:47.876Z,4.37
2018-06-08T04:29:15.839Z,2.53
2018-06-08T04:31:44.053Z,4.10
2018-06-08T04:34:12.290Z,4.93
2018-06-08T04:36:40.504Z,3.10
2018-06-08T04:39:09.040Z,2.47
2018-06-08T04:41:37.247Z,7.17
2018-06-08T04:44:05.473Z,2.97
2018-06-08T04:46:33.737Z,4.50
2018-06-08T04:49:01.962Z,3.40
2018-06-08T04:51:30.212Z,1.83
2018-06-08T04:53:58.427Z,3.73
2018-06-08T04:56:26.666Z,2.77
2018-06-08T04:58:54.925Z,1.60
2018-06-08T05:01:23.378Z,2.20
2018-06-08T05:03:51.581Z,4.83
2018-06-08T05:06:19.807Z,4.60
2018-06-08T05:08:48.022Z,2.37
2018-06-08T05:11:16.221Z,2.07
2018-06-08T05:13:44.479Z,4.90
2018-06-08T05:16:12.673Z,2.63
2018-06-08T05:18:40.868Z,4.83
2018-06-08T05:21:09.812Z,2.17
2018-06-08T05:23:38.197Z,4.40
2018-06-08T05:26:06.440Z,1.83
2018-06-08T05:28:34.641Z,2.90
2018-06-08T05:31:02.859Z,2.10
2018-06-08T05:33:31.032Z,2.87
2018-06-08T05:35:58.973Z,5.20
2018-06-08T05:38:27.231Z,1.97
2018-06-08T05:40:55.435Z,3.27
2018-06-08T05:43:23.618Z,1.87
2018-06-08T05:45:51.664Z,2.23
2018-06-08T05:48:19.974Z,3.77
2018-06-08T05:50:49.909Z,2.40
2018-06-08T05:53:18.096Z,2.23
2018-06-08T05:55:47.271Z,4.83
2018-06-08T05:58:15.474Z,1.90
2018-06-08T06:00:43.663Z,3.37
2018-06-08T06:03:11.846Z,0.87
2018-06-08T06:05:40.085Z,3.13
2018-06-08T06:08:08.477Z,2.90
2018-06-08T06:10:36.615Z,2.07
2018-06-08T06:13:04.869Z,3.47
2018-06-08T06:15:33.081Z,4.27
2018-06-08T06:18:01.314Z,1.37
2018-06-08T06:20:33.712Z,3.50
2018-06-08T06:23:01.977Z,1.67
2018-06-08T06:25:32.405Z,2.83
2018-06-08T06:28:00.770Z,3.77
2018-06-08T06:30:29.119Z,2.03
2018-06-08T06:32:57.355Z,1.73
2018-06-08T06:35:25.323Z,0.70
2018-06-08T06:37:53.578Z,4.07
2018-06-08T06:40:21.855Z,2.00
2018-06-08T06:42:50.075Z,2.43
2018-06-08T06:45:18.282Z,1.60
2018-06-08T06:47:46.618Z,2.63
2018-06-08T06:50:14.893Z,2.60
2018-06-08T06:52:44.093Z,2.80
2018-06-08T06:55:12.471Z,1.27
2018-06-08T06:57:40.718Z,1.40
2018-06-08T07:00:09.089Z,3.10
2018-06-08T07:02:37.363Z,4.93
2018-06-08T07:05:05.573Z,1.73
2018-06-08T07:07:33.824Z,1.27
2018-06-08T07:10:02.142Z,0.73
2018-06-08T07:12:30.330Z,1.67
2018-06-08T07:15:00.075Z,1.70
2018-06-08T07:17:28.051Z,2.60
2018-06-08T07:19:56.346Z,0.93
2018-06-08T07:22:27.952Z,1.40
2018-06-08T07:24:56.246Z,1.27
2018-06-08T07:27:24.438Z,4.10
2018-06-08T07:29:52.385Z,4.10
2018-06-08T07:32:20.662Z,3.07
2018-06-08T07:34:48.864Z,4.37
2018-06-08T07:37:17.100Z,4.77
2018-06-08T07:39:45.479Z,1.53
2018-06-08T07:42:21.591Z,2.80
2018-06-08T07:44:50.241Z,1.37
2018-06-08T07:47:18.479Z,3.73
2018-06-08T07:49:46.643Z,1.27
2018-06-08T07:52:14.821Z,0.97
2018-06-08T07:54:43.049Z,1.60
2018-06-08T07:57:11.239Z,2.13
2018-06-08T07:59:39.493Z,1.07
2018-06-08T08:02:07.685Z,1.40
2018-06-08T08:04:35.898Z,1.13
2018-06-08T08:07:04.221Z,0.97
2018-06-08T08:09:32.423Z,0.90
2018-06-08T08:12:00.658Z,0.67
2018-06-08T08:14:29.385Z,26.10
2018-06-08T08:16:58.385Z,27.33
2018-06-08T08:19:26.911Z,31.17
2018-06-08T08:21:55.123Z,29.10
2018-06-08T08:24:23.351Z,28.60
2018-06-08T08:26:51.619Z,27.60
2018-06-08T08:29:19.860Z,28.00
2018-06-08T08:31:48.058Z,29.87
2018-06-08T08:34:16.271Z,25.90
2018-06-08T08:36:44.461Z,24.67
2018-06-08T08:39:12.711Z,25.00
2018-06-08T08:41:41.293Z,25.47
2018-06-08T08:44:09.501Z,27.50
2018-06-08T08:46:37.746Z,26.10
2018-06-08T08:49:05.974Z,24.40
2018-06-08T08:51:34.208Z,21.17
2018-06-08T08:54:02.368Z,20.20
2018-06-08T08:56:30.574Z,22.40
2018-06-08T08:58:58.792Z,22.90
2018-06-08T09:01:26.997Z,19.10
2018-06-08T09:03:55.260Z,20.00
2018-06-08T09:06:23.470Z,18.93
2018-06-08T09:08:51.665Z,19.70
2018-06-08T09:11:19.633Z,17.70
2018-06-08T09:13:47.836Z,21.17
2018-06-08T09:16:16.034Z,19.23
2018-06-08T09:18:44.261Z,19.13
2018-06-08T09:21:12.505Z,19.47
2018-06-08T09:23:40.721Z,20.03
2018-06-08T09:26:09.149Z,19.00
2018-06-08T09:28:37.391Z,19.40
2018-06-08T09:31:05.643Z,21.13
2018-06-08T09:33:33.836Z,21.13
2018-06-08T09:36:02.201Z,20.63
2018-06-08T09:38:30.403Z,21.20
2018-06-08T09:40:58.630Z,21.10
2018-06-08T09:43:26.853Z,22.80
2018-06-08T09:45:55.061Z,21.77
2018-06-08T09:48:23.303Z,21.87
2018-06-08T09:50:51.541Z,20.83
2018-06-08T09:53:19.750Z,18.47
2018-06-08T09:55:47.950Z,17.33
2018-06-08T09:58:16.461Z,19.73
2018-06-08T10:00:45.944Z,18.80
2018-06-08T10:03:14.249Z,19.50
2018-06-08T10:05:42.478Z,17.87
2018-06-08T10:08:11.078Z,18.47
2018-06-08T10:10:39.308Z,19.10
2018-06-08T10:13:07.565Z,16.97
2018-06-08T10:15:35.791Z,14.93
2018-06-08T10:18:04.434Z,18.53
2018-06-08T10:20:32.634Z,16.57
2018-06-08T10:23:00.860Z,16.23
2018-06-08T10:25:28.811Z,17.37
2018-06-08T10:27:57.046Z,19.50
2018-06-08T10:30:25.482Z,16.20
2018-06-08T10:32:53.710Z,18.63
2018-06-08T10:35:21.956Z,15.90
2018-06-08T10:37:50.153Z,14.80
2018-06-08T10:40:18.378Z,12.77
2018-06-08T10:42:46.585Z,15.47
2018-06-08T10:45:14.799Z,15.17
2018-06-08T10:47:43.006Z,13.97
2018-06-08T10:50:11.214Z,14.27
2018-06-08T10:52:39.649Z,15.10
2018-06-08T10:55:07.985Z,15.77
2018-06-08T10:57:36.214Z,15.00
2018-06-08T11:00:04.462Z,18.30
2018-06-08T11:02:32.674Z,17.23
2018-06-08T11:05:00.889Z,15.60
2018-06-08T11:07:29.093Z,18.40
2018-06-08T11:09:57.318Z,15.60
2018-06-08T11:12:25.558Z,14.17
2018-06-08T11:14:53.800Z,14.00
2018-06-08T11:17:22.018Z,16.20
2018-06-08T11:19:50.246Z,15.50
2018-06-08T11:22:18.418Z,15.90
2018-06-08T11:24:46.631Z,15.37
2018-06-08T11:27:14.819Z,15.63
2018-06-08T11:29:43.136Z,16.80
2018-06-08T11:32:11.355Z,17.40
2018-06-08T11:34:39.583Z,16.23
2018-06-08T11:37:07.887Z,15.57
2018-06-08T11:39:36.138Z,14.57
2018-06-08T11:42:04.434Z,16.30
2018-06-08T11:44:32.690Z,15.13
2018-06-08T11:47:00.911Z,15.53
2018-06-08T11:49:29.180Z,14.20
2018-06-08T11:51:57.502Z,12.90
2018-06-08T11:54:25.748Z,13.30
2018-06-08T11:56:54.007Z,14.07
2018-06-08T11:59:22.643Z,13.17
2018-06-08T12:01:50.967Z,12.80
2018-06-08T12:04:19.213Z,13.70
2018-06-08T12:06:47.995Z,12.20
2018-06-08T12:09:16.238Z,12.07
2018-06-08T12:11:44.483Z,11.97
2018-06-08T12:14:12.754Z,10.63
2018-06-08T12:16:41.013Z,10.47
2018-06-08T12:19:09.376Z,10.30
2018-06-08T12:21:37.988Z,10.60
2018-06-08T12:24:06.304Z,10.00
2018-06-08T12:26:34.574Z,10.10
2018-06-08T12:29:02.798Z,10.93
2018-06-08T12:31:31.086Z,11.37
2018-06-08T12:33:59.369Z,10.37
2018-06-08T12:36:27.587Z,9.40
2018-06-08T12:38:55.664Z,10.80
2018-06-08T12:41:24.070Z,10.33
2018-06-08T12:43:53.613Z,8.70
2018-06-08T12:46:21.900Z,8.50
2018-06-08T12:48:50.212Z,8.33
2018-06-08T12:51:18.502Z,7.40
2018-06-08T12:53:46.752Z,7.80
2018-06-08T12:56:15.039Z,7.53
2018-06-08T12:58:43.352Z,9.13
2018-06-08T13:01:11.915Z,6.77
2018-06-08T13:03:40.161Z,6.63
2018-06-08T13:06:08.413Z,6.93
2018-06-08T13:08:36.637Z,6.10
2018-06-08T13:11:04.861Z,5.70
2018-06-08T13:13:33.097Z,5.73
2018-06-08T13:16:01.295Z,5.73
2018-06-08T13:18:29.598Z,6.27
2018-06-08T13:20:57.830Z,6.47
2018-06-08T13:23:26.088Z,6.80
2018-06-08T13:25:54.315Z,6.63
2018-06-08T13:28:22.570Z,6.10
2018-06-08T13:30:50.779Z,6.37
2018-06-08T13:33:19.028Z,6.10
2018-06-08T13:35:47.238Z,6.07
2018-06-08T13:38:15.458Z,5.17
2018-06-08T13:40:43.652Z,5.40
2018-06-08T13:43:11.887Z,5.07
2018-06-08T13:45:40.276Z,5.03
2018-06-08T13:48:08.554Z,5.20
2018-06-08T13:50:36.773Z,4.27
2018-06-08T13:53:05.256Z,5.17
2018-06-08T13:55:33.544Z,5.80
2018-06-08T13:58:02.236Z,5.07
2018-06-08T14:00:30.544Z,4.80
2018-06-08T14:02:58.761Z,5.07
2018-06-08T14:05:27.027Z,5.90
2018-06-08T14:07:55.273Z,5.77
2018-06-08T14:10:23.937Z,5.30
2018-06-08T14:12:52.229Z,5.07
2018-06-08T14:15:20.433Z,5.30
2018-06-08T14:17:48.664Z,5.70
2018-06-08T14:20:16.882Z,4.77
2018-06-08T14:22:45.098Z,5.10
2018-06-08T14:25:13.387Z,5.00
2018-06-08T14:27:41.601Z,4.97
2018-06-08T14:30:09.810Z,4.97
2018-06-08T14:32:38.258Z,5.13
2018-06-08T14:35:13.050Z,5.60
2018-06-08T14:37:41.295Z,5.83
2018-06-08T14:40:09.734Z,5.23
2018-06-08T14:42:37.913Z,5.30
2018-06-08T14:45:06.136Z,6.37
2018-06-08T14:47:34.348Z,5.97
2018-06-08T14:50:02.518Z,6.00
2018-06-08T14:52:30.721Z,6.63
2018-06-08T14:54:59.237Z,6.53
2018-06-08T14:57:28.851Z,6.60
2018-06-08T14:59:57.128Z,4.90
2018-06-08T15:02:25.327Z,5.73
2018-06-08T15:04:53.619Z,5.30
2018-06-08T15:07:21.911Z,6.43
2018-06-08T15:09:50.200Z,6.60
2018-06-08T15:12:18.364Z,5.90
2018-06-08T15:14:46.562Z,6.37
2018-06-08T15:17:14.914Z,6.20
2018-06-08T15:19:43.114Z,7.20
2018-06-08T15:22:11.358Z,7.50
2018-06-08T15:24:39.534Z,7.00
2018-06-08T15:27:07.755Z,6.53
2018-06-08T15:29:35.964Z,6.80
2018-06-08T15:32:04.173Z,6.23
2018-06-08T15:34:32.360Z,7.50
2018-06-08T15:37:00.551Z,7.43
2018-06-08T15:39:28.759Z,6.60
2018-06-08T15:48:41.016Z,7.13
2018-06-08T15:51:09.358Z,6.50
2018-06-08T15:53:37.669Z,6.10
2018-06-08T15:56:06.729Z,4.97
2018-06-08T15:58:35.070Z,5.50
2018-06-08T16:01:03.339Z,4.83
2018-06-08T16:03:31.613Z,4.63
2018-06-08T16:05:59.943Z,4.00
2018-06-08T16:08:28.337Z,4.10
2018-06-08T16:10:56.534Z,4.80
2018-06-08T16:13:24.719Z,4.73
2018-06-08T16:15:53.010Z,5.43
2018-06-08T16:18:21.206Z,5.07
2018-06-08T16:20:49.420Z,5.50
2018-06-08T16:23:17.802Z,7.07
2018-06-08T16:25:46.018Z,5.73
2018-06-08T16:28:14.215Z,5.80
2018-06-08T16:30:42.415Z,6.00
2018-06-08T16:33:10.625Z,5.20
2018-06-08T16:35:38.847Z,4.93
2018-06-08T16:38:07.039Z,4.67
2018-06-08T16:40:35.282Z,5.10
2018-06-08T16:43:03.534Z,4.67
2018-06-08T16:45:31.798Z,4.60
2018-06-08T16:48:00.062Z,5.10
2018-06-08T16:50:28.229Z,5.43
2018-06-08T16:52:56.435Z,4.20
2018-06-08T16:55:24.611Z,4.37
2018-06-08T16:57:52.864Z,4.30
2018-06-08T17:00:21.039Z,5.10
2018-06-08T17:02:49.238Z,4.60
2018-06-08T17:05:17.413Z,5.00
2018-06-08T17:07:45.436Z,4.87
2018-06-08T17:10:13.629Z,4.03
2018-06-08T17:12:41.821Z,53.33
2018-06-08T17:15:10.092Z,5.73
2018-06-08T17:17:38.234Z,4.90
2018-06-08T17:20:06.446Z,5.57
2018-06-08T17:22:34.660Z,6.30
2018-06-08T17:25:02.886Z,6.50
2018-06-08T17:27:31.160Z,5.23
2018-06-08T17:29:59.438Z,5.70
2018-06-08T17:32:27.676Z,4.90
2018-06-08T17:34:55.878Z,5.33
2018-06-08T17:37:24.070Z,6.00
2018-06-08T17:39:52.270Z,6.30
2018-06-08T17:42:20.217Z,5.63
2018-06-08T17:44:48.442Z,6.20
2018-06-08T17:47:16.638Z,6.20
2018-06-08T17:49:44.881Z,6.70
2018-06-08T17:52:13.106Z,6.30
2018-06-08T17:54:41.354Z,6.90
2018-06-08T17:57:09.613Z,6.93
2018-06-08T17:59:37.773Z,6.40
2018-06-08T18:02:06.008Z,7.13
2018-06-08T18:04:34.205Z,6.30
2018-06-08T18:07:02.150Z,7.60
2018-06-08T18:09:30.390Z,7.47
2018-06-08T18:11:58.609Z,6.43
2018-06-08T18:14:26.801Z,5.73
2018-06-08T18:16:54.723Z,6.93
2018-06-08T18:19:22.933Z,5.70
2018-06-08T18:21:50.893Z,5.77
2018-06-08T18:24:19.126Z,5.90
2018-06-08T18:26:47.334Z,6.00
2018-06-08T18:29:15.545Z,5.87
2018-06-08T18:31:43.739Z,6.20
2018-06-08T18:34:12.027Z,5.87
2018-06-08T18:36:40.239Z,6.83
2018-06-08T18:39:08.711Z,5.87
2018-06-08T18:41:36.906Z,5.30
2018-06-08T18:44:05.106Z,5.23
2018-06-08T18:46:33.333Z,5.50
2018-06-08T18:49:01.530Z,5.47
2018-06-08T18:51:29.711Z,4.07
2018-06-08T18:53:57.685Z,3.97
2018-06-08T18:56:25.921Z,4.47
2018-06-08T18:58:54.119Z,4.20
2018-06-08T19:01:22.324Z,4.20
2018-06-08T19:03:50.538Z,4.67
2018-06-08T19:06:18.790Z,4.10
2018-06-08T19:08:46.958Z,4.00
2018-06-08T19:11:15.145Z,3.77
2018-06-08T19:13:43.357Z,4.80
2018-06-08T19:16:11.570Z,4.00
2018-06-08T19:18:39.766Z,5.17
2018-06-08T19:21:07.958Z,4.10
2018-06-08T19:23:36.201Z,4.23
2018-06-08T19:26:04.409Z,5.03
2018-06-08T19:28:32.589Z,3.87
2018-06-08T19:31:00.781Z,3.93
2018-06-08T19:33:28.976Z,4.57
2018-06-08T19:35:57.189Z,4.17
2018-06-08T19:38:25.382Z,4.93
2018-06-08T19:40:53.581Z,4.47
2018-06-08T19:43:21.797Z,4.17
2018-06-08T19:45:50.010Z,5.07
2018-06-08T19:48:18.222Z,3.93
2018-06-08T19:50:46.430Z,4.50
2018-06-08T19:53:14.618Z,4.70
2018-06-08T19:55:42.805Z,4.90
2018-06-08T19:58:11.015Z,5.23
2018-06-08T20:00:38.962Z,5.03
2018-06-08T20:03:07.214Z,6.40
2018-06-08T20:05:35.398Z,5.60
2018-06-08T20:08:03.646Z,5.43
2018-06-08T20:10:31.865Z,5.43
2018-06-08T20:13:00.042Z,5.87
2018-06-08T20:15:28.245Z,6.40
2018-06-08T20:17:56.458Z,5.97
2018-06-08T20:20:24.649Z,6.50
2018-06-08T20:22:52.848Z,6.93
2018-06-08T20:25:21.090Z,7.50
2018-06-08T20:27:49.289Z,7.53
2018-06-08T20:30:17.521Z,7.30
2018-06-08T20:32:45.704Z,6.70
2018-06-08T20:35:13.946Z,6.80
2018-06-08T20:37:42.142Z,6.87
2018-06-08T20:40:10.377Z,7.00
2018-06-08T20:42:38.325Z,7.37
2018-06-08T20:45:06.544Z,8.00
2018-06-08T20:47:34.947Z,7.27
2018-06-08T20:50:03.246Z,7.10
2018-06-08T20:52:31.442Z,6.67
2018-06-08T20:54:59.673Z,7.13
2018-06-08T20:57:28.810Z,6.77
2018-06-08T20:59:56.985Z,7.10
2018-06-08T21:02:25.357Z,7.33
2018-06-08T21:04:53.407Z,6.73
2018-06-08T21:07:21.905Z,7.93
2018-06-08T21:09:50.343Z,7.03
2018-06-08T21:12:18.570Z,7.70
2018-06-08T21:14:46.786Z,7.40
2018-06-08T21:17:14.977Z,7.37
2018-06-08T21:19:43.208Z,6.50
2018-06-08T21:22:11.153Z,7.30
2018-06-08T21:24:39.350Z,7.20
2018-06-08T21:27:07.381Z,6.50
2018-06-08T21:29:35.502Z,6.60
2018-06-08T21:32:03.508Z,7.50
2018-06-08T21:34:31.678Z,7.43
2018-06-08T21:36:59.857Z,6.73
2018-06-08T21:39:28.041Z,7.90
2018-06-08T21:41:56.249Z,7.37
2018-06-08T21:44:24.441Z,6.20
2018-06-08T21:46:52.661Z,8.10
2018-06-08T21:49:20.826Z,7.23
2018-06-08T21:51:49.021Z,7.50
2018-06-08T21:54:17.281Z,6.67
2018-06-08T21:56:45.485Z,7.90
2018-06-08T21:59:13.682Z,7.30
2018-06-08T22:01:41.897Z,8.13
2018-06-08T22:04:10.095Z,7.33
2018-06-08T22:06:38.289Z,8.23
2018-06-08T22:09:07.042Z,7.87
2018-06-08T22:11:35.237Z,7.20
2018-06-08T22:14:03.950Z,7.03
2018-06-08T22:16:32.178Z,7.27
2018-06-08T22:19:00.673Z,7.10
2018-06-08T22:21:28.873Z,6.73
2018-06-08T22:23:57.053Z,6.97
2018-06-08T22:26:25.291Z,7.27
2018-06-08T22:28:53.486Z,7.70
2018-06-08T22:31:21.670Z,8.17
2018-06-08T22:33:49.897Z,9.13
2018-06-08T22:36:18.438Z,7.00
2018-06-08T22:38:46.613Z,7.23
2018-06-08T22:41:14.852Z,6.70
2018-06-08T22:43:43.037Z,6.60
2018-06-08T22:46:11.210Z,6.27
2018-06-08T22:48:39.453Z,5.83
2018-06-08T22:51:07.638Z,5.50
2018-06-08T22:53:35.817Z,5.70
2018-06-08T22:56:04.001Z,4.80
2018-06-08T22:58:32.247Z,5.53
2018-06-08T23:01:00.450Z,4.83
2018-06-08T23:03:29.470Z,5.00
2018-06-08T23:05:57.730Z,5.00
2018-06-08T23:08:25.909Z,5.07
2018-06-08T23:10:54.101Z,5.10
2018-06-08T23:13:22.062Z,5.07
2018-06-08T23:15:50.265Z,4.77
2018-06-08T23:18:18.189Z,4.53
2018-06-08T23:20:46.394Z,4.20
2018-06-08T23:23:14.339Z,4.87
2018-06-08T23:25:42.578Z,5.20
2018-06-08T23:28:10.753Z,4.93
2018-06-08T23:30:38.945Z,5.20
2018-06-08T23:33:07.134Z,5.30
2018-06-08T23:35:35.371Z,5.90
2018-06-08T23:38:03.585Z,4.40
2018-06-08T23:40:31.849Z,5.23
2018-06-08T23:43:00.289Z,4.60
2018-06-08T23:45:28.494Z,5.10
2018-06-08T23:47:56.668Z,5.07
2018-06-08T23:50:24.849Z,5.53
2018-06-08T23:52:53.032Z,5.37
2018-06-08T23:55:21.254Z,5.63
2018-06-08T23:57:49.433Z,4.70
